Terminal Aerodrome Forecast
Issued by NWS

Home | Current Version | Previous Version | Text Only | Print | Product List | Glossary On
Versions: 1 2 3 4 5 6 7 8 9 10 11 12 13 14 15 16 17 18 19 20 21 22 23 24 25 26 27 28 29 30 31
000
FTUS43 KDMX 111733
TAFOTM
TAF
KOTM 111733Z 1118/1218 11004KT P6SM SCT250
     FM112100 14005KT P6SM BKN035
     FM120100 14004KT 1SM -SN BKN011
     FM120600 19006KT 5SM -SN BKN017
     FM120900 27007KT P6SM BKN025
     FM121600 32016G24KT P6SM SCT030=

USA.gov is the U.S. government's official web portal to all federal, state and local government web resources and services.